Mirando City, Texas
Current Conditions -  °F | °C
As of 2:55 PM on Thursday 23 Oct 2014 (Local Time) from KHBV Reporting Station
Clear Clear  
Wind Chill: 81°   Ceiling: Unl
Heat Index: 81°   Visibility: 10mi
Dew Point: 57°   Wind: 5mph
Humidity: 43%   Direction: 50°NE
Pressure: 30.07"   Gusts: NA
Location:  27.44°N, 99°W
Report Text: KHBV 231955Z AUTO 05004KT 10SM CLR 27/14 A3007 RMK AO2 T02740137 PWINO
Loading
Personal Weather Stations






























Interactive Weather Map
Tropical Storm Tracking
New forecast layout! Learn more

10-Day Weather Forecast

Advertisements
Track Severe Weather on mobile